sensor_id;sensor_type;location;lat;lon;timestamp;P1;durP1;ratioP1;P2;durP2;ratioP2
58272;SDS011;44075;42.436;18.514;2022-08-16T00:02:01;10.25;;;6.85;;
58272;SDS011;44075;42.436;18.514;2022-08-16T00:04:28;10.00;;;7.75;;
58272;SDS011;44075;42.436;18.514;2022-08-16T00:06:57;9.68;;;7.00;;
58272;SDS011;44075;42.436;18.514;2022-08-16T00:09:23;9.85;;;7.90;;
58272;SDS011;44075;42.436;18.514;2022-08-16T00:11:49;10.68;;;7.47;;
58272;SDS011;44075;42.436;18.514;2022-08-16T00:14:18;12.63;;;8.13;;
58272;SDS011;44075;42.436;18.514;2022-08-16T00:16:45;10.18;;;7.82;;
58272;SDS011;44075;42.436;18.514;2022-08-16T00:19:13;9.25;;;6.95;;
58272;SDS011;44075;42.436;18.514;2022-08-16T00:21:39;9.75;;;7.72;;
58272;SDS011;44075;42.436;18.514;2022-08-16T00:24:08;11.55;;;7.65;;
58272;SDS011;44075;42.436;18.514;2022-08-16T00:26:35;10.40;;;7.20;;
58272;SDS011;44075;42.436;18.514;2022-08-16T00:29:01;9.77;;;7.32;;
58272;SDS011;44075;42.436;18.514;2022-08-16T00:31:28;12.02;;;7.40;;
58272;SDS011;44075;42.436;18.514;2022-08-16T00:33:54;9.50;;;7.30;;
58272;SDS011;44075;42.436;18.514;2022-08-16T00:36:20;10.38;;;7.43;;
58272;SDS011;44075;42.436;18.514;2022-08-16T00:38:52;11.07;;;7.15;;
58272;SDS011;44075;42.436;18.514;2022-08-16T00:41:22;10.60;;;7.40;;
58272;SDS011;44075;42.436;18.514;2022-08-16T00:43:49;9.70;;;7.45;;
58272;SDS011;44075;42.436;18.514;2022-08-16T00:46:24;11.23;;;7.55;;
58272;SDS011;44075;42.436;18.514;2022-08-16T00:48:52;9.90;;;7.45;;
58272;SDS011;44075;42.436;18.514;2022-08-16T00:51:20;10.13;;;7.43;;
58272;SDS011;44075;42.436;18.514;2022-08-16T00:53:49;8.93;;;6.97;;
58272;SDS011;44075;42.436;18.514;2022-08-16T00:56:20;10.30;;;7.80;;
58272;SDS011;44075;42.436;18.514;2022-08-16T00:58:46;10.95;;;7.18;;
58272;SDS011;44075;42.436;18.514;2022-08-16T01:01:13;10.32;;;7.65;;
58272;SDS011;44075;42.436;18.514;2022-08-16T01:03:41;10.98;;;7.45;;
58272;SDS011;44075;42.436;18.514;2022-08-16T01:06:09;9.95;;;7.13;;
58272;SDS011;44075;42.436;18.514;2022-08-16T01:08:35;11.30;;;7.78;;
58272;SDS011;44075;42.436;18.514;2022-08-16T01:11:02;10.55;;;7.50;;
58272;SDS011;44075;42.436;18.514;2022-08-16T01:13:29;10.20;;;7.57;;
58272;SDS011;44075;42.436;18.514;2022-08-16T01:15:56;9.50;;;7.35;;
58272;SDS011;44075;42.436;18.514;2022-08-16T01:18:27;9.82;;;7.57;;
58272;SDS011;44075;42.436;18.514;2022-08-16T01:20:57;10.18;;;7.28;;
58272;SDS011;44075;42.436;18.514;2022-08-16T01:23:30;13.68;;;8.20;;
58272;SDS011;44075;42.436;18.514;2022-08-16T01:25:58;9.02;;;7.20;;
58272;SDS011;44075;42.436;18.514;2022-08-16T01:28:24;9.88;;;7.53;;
58272;SDS011;44075;42.436;18.514;2022-08-16T01:30:53;10.68;;;8.35;;
58272;SDS011;44075;42.436;18.514;2022-08-16T01:33:20;9.93;;;7.25;;
58272;SDS011;44075;42.436;18.514;2022-08-16T01:35:47;10.27;;;7.57;;
58272;SDS011;44075;42.436;18.514;2022-08-16T01:40:47;10.68;;;7.65;;
58272;SDS011;44075;42.436;18.514;2022-08-16T01:43:14;10.60;;;8.05;;
58272;SDS011;44075;42.436;18.514;2022-08-16T01:45:40;10.10;;;7.00;;
58272;SDS011;44075;42.436;18.514;2022-08-16T01:48:06;10.10;;;7.50;;
58272;SDS011;44075;42.436;18.514;2022-08-16T01:50:33;9.57;;;7.88;;
58272;SDS011;44075;42.436;18.514;2022-08-16T01:52:59;10.23;;;7.72;;
58272;SDS011;44075;42.436;18.514;2022-08-16T01:55:26;10.02;;;7.78;;
58272;SDS011;44075;42.436;18.514;2022-08-16T01:57:52;11.05;;;7.45;;
58272;SDS011;44075;42.436;18.514;2022-08-16T02:00:18;10.48;;;8.13;;
58272;SDS011;44075;42.436;18.514;2022-08-16T02:02:44;10.38;;;7.90;;
58272;SDS011;44075;42.436;18.514;2022-08-16T02:05:10;10.88;;;8.02;;
58272;SDS011;44075;42.436;18.514;2022-08-16T02:07:37;10.18;;;7.80;;
58272;SDS011;44075;42.436;18.514;2022-08-16T02:10:07;9.82;;;7.72;;
58272;SDS011;44075;42.436;18.514;2022-08-16T02:12:33;10.38;;;7.20;;
58272;SDS011;44075;42.436;18.514;2022-08-16T02:15:00;9.75;;;8.20;;
58272;SDS011;44075;42.436;18.514;2022-08-16T02:17:26;9.45;;;7.60;;
58272;SDS011;44075;42.436;18.514;2022-08-16T02:19:52;11.18;;;7.82;;
58272;SDS011;44075;42.436;18.514;2022-08-16T02:22:20;10.43;;;8.00;;
58272;SDS011;44075;42.436;18.514;2022-08-16T02:24:46;8.90;;;7.30;;
58272;SDS011;44075;42.436;18.514;2022-08-16T02:27:12;10.85;;;9.00;;
58272;SDS011;44075;42.436;18.514;2022-08-16T02:29:38;10.63;;;8.27;;
58272;SDS011;44075;42.436;18.514;2022-08-16T02:32:05;9.85;;;8.38;;
58272;SDS011;44075;42.436;18.514;2022-08-16T02:34:31;10.90;;;8.20;;
58272;SDS011;44075;42.436;18.514;2022-08-16T02:36:57;11.30;;;8.10;;
58272;SDS011;44075;42.436;18.514;2022-08-16T02:39:29;11.02;;;7.60;;
58272;SDS011;44075;42.436;18.514;2022-08-16T02:41:55;10.35;;;8.38;;
58272;SDS011;44075;42.436;18.514;2022-08-16T02:44:24;9.88;;;8.55;;
58272;SDS011;44075;42.436;18.514;2022-08-16T02:46:50;9.85;;;8.35;;
58272;SDS011;44075;42.436;18.514;2022-08-16T02:49:17;12.38;;;9.13;;
58272;SDS011;44075;42.436;18.514;2022-08-16T02:51:43;9.40;;;7.32;;
58272;SDS011;44075;42.436;18.514;2022-08-16T02:54:09;10.18;;;7.43;;
58272;SDS011;44075;42.436;18.514;2022-08-16T02:56:37;9.55;;;7.40;;
58272;SDS011;44075;42.436;18.514;2022-08-16T02:59:03;9.35;;;7.75;;
58272;SDS011;44075;42.436;18.514;2022-08-16T03:01:33;9.70;;;7.75;;
58272;SDS011;44075;42.436;18.514;2022-08-16T03:04:00;9.45;;;7.80;;
58272;SDS011;44075;42.436;18.514;2022-08-16T03:06:28;9.07;;;7.28;;
58272;SDS011;44075;42.436;18.514;2022-08-16T03:08:54;9.50;;;7.13;;
58272;SDS011;44075;42.436;18.514;2022-08-16T03:11:20;11.32;;;8.05;;
58272;SDS011;44075;42.436;18.514;2022-08-16T03:13:48;10.70;;;8.02;;
58272;SDS011;44075;42.436;18.514;2022-08-16T03:16:14;10.43;;;7.72;;
58272;SDS011;44075;42.436;18.514;2022-08-16T03:18:41;10.95;;;7.47;;
58272;SDS011;44075;42.436;18.514;2022-08-16T03:21:07;10.32;;;8.27;;
58272;SDS011;44075;42.436;18.514;2022-08-16T03:23:36;11.10;;;8.30;;
58272;SDS011;44075;42.436;18.514;2022-08-16T03:26:02;10.60;;;7.43;;
58272;SDS011;44075;42.436;18.514;2022-08-16T03:28:31;12.00;;;8.20;;
58272;SDS011;44075;42.436;18.514;2022-08-16T03:31:00;11.13;;;7.28;;
58272;SDS011;44075;42.436;18.514;2022-08-16T03:33:29;10.05;;;7.88;;
58272;SDS011;44075;42.436;18.514;2022-08-16T03:35:56;10.48;;;7.90;;
58272;SDS011;44075;42.436;18.514;2022-08-16T03:38:27;9.98;;;7.93;;
58272;SDS011;44075;42.436;18.514;2022-08-16T03:40:56;9.60;;;7.35;;
58272;SDS011;44075;42.436;18.514;2022-08-16T03:43:22;10.27;;;7.97;;
58272;SDS011;44075;42.436;18.514;2022-08-16T03:45:50;10.40;;;7.43;;
58272;SDS011;44075;42.436;18.514;2022-08-16T03:48:16;9.88;;;7.07;;
58272;SDS011;44075;42.436;18.514;2022-08-16T03:50:42;9.70;;;7.07;;
58272;SDS011;44075;42.436;18.514;2022-08-16T03:53:11;9.90;;;7.30;;
58272;SDS011;44075;42.436;18.514;2022-08-16T03:55:37;9.63;;;7.65;;
58272;SDS011;44075;42.436;18.514;2022-08-16T03:58:04;10.15;;;7.45;;
58272;SDS011;44075;42.436;18.514;2022-08-16T04:00:30;9.95;;;7.65;;
58272;SDS011;44075;42.436;18.514;2022-08-16T04:02:57;9.05;;;7.35;;
58272;SDS011;44075;42.436;18.514;2022-08-16T04:05:26;9.68;;;7.55;;
58272;SDS011;44075;42.436;18.514;2022-08-16T04:07:53;9.23;;;7.18;;
58272;SDS011;44075;42.436;18.514;2022-08-16T04:10:19;9.90;;;7.40;;
58272;SDS011;44075;42.436;18.514;2022-08-16T04:12:45;9.35;;;6.97;;
58272;SDS011;44075;42.436;18.514;2022-08-16T04:15:12;11.30;;;7.68;;
58272;SDS011;44075;42.436;18.514;2022-08-16T04:17:38;9.25;;;7.28;;
58272;SDS011;44075;42.436;18.514;2022-08-16T04:20:05;10.23;;;7.47;;
58272;SDS011;44075;42.436;18.514;2022-08-16T04:22:32;11.05;;;7.55;;
58272;SDS011;44075;42.436;18.514;2022-08-16T04:25:03;9.80;;;7.95;;
58272;SDS011;44075;42.436;18.514;2022-08-16T04:27:29;10.82;;;7.65;;
58272;SDS011;44075;42.436;18.514;2022-08-16T04:29:55;9.13;;;7.28;;
58272;SDS011;44075;42.436;18.514;2022-08-16T04:32:22;9.35;;;7.50;;
58272;SDS011;44075;42.436;18.514;2022-08-16T04:34:48;9.95;;;7.25;;
58272;SDS011;44075;42.436;18.514;2022-08-16T04:37:14;10.32;;;7.65;;
58272;SDS011;44075;42.436;18.514;2022-08-16T04:39:43;9.52;;;7.32;;
58272;SDS011;44075;42.436;18.514;2022-08-16T04:48:16;19.35;;;10.55;;
58272;SDS011;44075;42.436;18.514;2022-08-16T04:53:50;42.65;;;14.50;;
58272;SDS011;44075;42.436;18.514;2022-08-16T04:59:20;35.88;;;13.50;;
58272;SDS011;44075;42.436;18.514;2022-08-16T05:01:49;26.70;;;11.63;;
58272;SDS011;44075;42.436;18.514;2022-08-16T05:04:20;40.65;;;13.82;;
58272;SDS011;44075;42.436;18.514;2022-08-16T05:06:47;15.25;;;11.02;;
58272;SDS011;44075;42.436;18.514;2022-08-16T05:09:13;16.77;;;12.18;;
58272;SDS011;44075;42.436;18.514;2022-08-16T05:11:39;18.52;;;11.60;;
58272;SDS011;44075;42.436;18.514;2022-08-16T05:14:05;17.50;;;12.32;;
58272;SDS011;44075;42.436;18.514;2022-08-16T05:16:31;15.25;;;10.35;;
58272;SDS011;44075;42.436;18.514;2022-08-16T05:18:58;14.57;;;8.73;;
58272;SDS011;44075;42.436;18.514;2022-08-16T05:21:27;18.42;;;9.15;;
58272;SDS011;44075;42.436;18.514;2022-08-16T05:23:55;16.35;;;9.35;;
58272;SDS011;44075;42.436;18.514;2022-08-16T05:26:23;14.80;;;8.57;;
58272;SDS011;44075;42.436;18.514;2022-08-16T05:28:49;13.63;;;8.48;;
58272;SDS011;44075;42.436;18.514;2022-08-16T05:31:15;15.15;;;9.25;;
58272;SDS011;44075;42.436;18.514;2022-08-16T05:33:45;15.55;;;9.15;;
58272;SDS011;44075;42.436;18.514;2022-08-16T05:36:14;15.23;;;9.50;;
58272;SDS011;44075;42.436;18.514;2022-08-16T05:38:40;15.00;;;8.40;;
58272;SDS011;44075;42.436;18.514;2022-08-16T05:41:07;11.88;;;8.50;;
58272;SDS011;44075;42.436;18.514;2022-08-16T05:43:33;13.90;;;9.73;;
58272;SDS011;44075;42.436;18.514;2022-08-16T05:45:59;15.68;;;11.07;;
58272;SDS011;44075;42.436;18.514;2022-08-16T05:48:25;15.52;;;9.75;;
58272;SDS011;44075;42.436;18.514;2022-08-16T05:50:51;17.88;;;9.10;;
58272;SDS011;44075;42.436;18.514;2022-08-16T05:53:18;14.70;;;8.05;;
58272;SDS011;44075;42.436;18.514;2022-08-16T05:55:44;16.92;;;7.68;;
58272;SDS011;44075;42.436;18.514;2022-08-16T05:58:10;16.98;;;8.35;;
58272;SDS011;44075;42.436;18.514;2022-08-16T06:00:36;17.83;;;8.80;;
58272;SDS011;44075;42.436;18.514;2022-08-16T06:03:02;14.38;;;7.88;;
58272;SDS011;44075;42.436;18.514;2022-08-16T06:05:28;15.55;;;7.38;;
58272;SDS011;44075;42.436;18.514;2022-08-16T06:07:54;17.65;;;9.45;;
58272;SDS011;44075;42.436;18.514;2022-08-16T06:10:21;15.90;;;7.95;;
58272;SDS011;44075;42.436;18.514;2022-08-16T06:12:47;15.32;;;8.27;;
58272;SDS011;44075;42.436;18.514;2022-08-16T06:15:14;15.27;;;8.35;;
58272;SDS011;44075;42.436;18.514;2022-08-16T06:17:41;14.00;;;7.75;;
58272;SDS011;44075;42.436;18.514;2022-08-16T06:20:08;11.98;;;7.80;;
58272;SDS011;44075;42.436;18.514;2022-08-16T06:22:35;13.35;;;8.15;;
58272;SDS011;44075;42.436;18.514;2022-08-16T06:25:03;11.73;;;7.30;;
58272;SDS011;44075;42.436;18.514;2022-08-16T06:27:29;14.10;;;7.88;;
58272;SDS011;44075;42.436;18.514;2022-08-16T06:29:55;17.02;;;9.57;;
58272;SDS011;44075;42.436;18.514;2022-08-16T06:32:21;30.65;;;11.55;;
58272;SDS011;44075;42.436;18.514;2022-08-16T06:34:50;45.35;;;13.50;;
58272;SDS011;44075;42.436;18.514;2022-08-16T06:37:16;26.92;;;9.98;;
58272;SDS011;44075;42.436;18.514;2022-08-16T06:39:42;17.40;;;11.65;;
58272;SDS011;44075;42.436;18.514;2022-08-16T06:42:08;16.63;;;10.45;;
58272;SDS011;44075;42.436;18.514;2022-08-16T06:44:36;15.10;;;10.75;;
58272;SDS011;44075;42.436;18.514;2022-08-16T06:47:02;16.20;;;10.80;;
58272;SDS011;44075;42.436;18.514;2022-08-16T06:49:32;22.95;;;12.02;;
58272;SDS011;44075;42.436;18.514;2022-08-16T06:51:59;22.48;;;11.45;;
58272;SDS011;44075;42.436;18.514;2022-08-16T06:54:27;14.70;;;9.30;;
58272;SDS011;44075;42.436;18.514;2022-08-16T06:56:55;14.60;;;8.18;;
58272;SDS011;44075;42.436;18.514;2022-08-16T06:59:21;9.25;;;6.43;;
58272;SDS011;44075;42.436;18.514;2022-08-16T07:01:47;9.65;;;6.47;;
58272;SDS011;44075;42.436;18.514;2022-08-16T07:04:16;12.43;;;6.25;;
58272;SDS011;44075;42.436;18.514;2022-08-16T07:06:43;12.55;;;6.60;;
58272;SDS011;44075;42.436;18.514;2022-08-16T07:09:10;12.48;;;6.70;;
58272;SDS011;44075;42.436;18.514;2022-08-16T07:11:36;10.50;;;6.80;;
58272;SDS011;44075;42.436;18.514;2022-08-16T07:14:02;10.20;;;5.82;;
58272;SDS011;44075;42.436;18.514;2022-08-16T07:16:28;11.70;;;7.45;;
58272;SDS011;44075;42.436;18.514;2022-08-16T07:18:54;11.60;;;6.07;;
58272;SDS011;44075;42.436;18.514;2022-08-16T07:21:22;10.65;;;6.15;;
58272;SDS011;44075;42.436;18.514;2022-08-16T07:23:51;10.10;;;6.97;;
58272;SDS011;44075;42.436;18.514;2022-08-16T07:26:19;12.85;;;6.88;;
58272;SDS011;44075;42.436;18.514;2022-08-16T07:28:52;16.38;;;8.00;;
58272;SDS011;44075;42.436;18.514;2022-08-16T07:31:21;14.32;;;7.57;;
58272;SDS011;44075;42.436;18.514;2022-08-16T07:33:47;15.55;;;8.15;;
58272;SDS011;44075;42.436;18.514;2022-08-16T07:36:13;17.90;;;8.73;;
58272;SDS011;44075;42.436;18.514;2022-08-16T07:38:39;18.35;;;8.57;;
58272;SDS011;44075;42.436;18.514;2022-08-16T07:41:06;16.90;;;8.30;;
58272;SDS011;44075;42.436;18.514;2022-08-16T07:43:32;13.70;;;7.47;;
58272;SDS011;44075;42.436;18.514;2022-08-16T07:45:58;12.27;;;7.43;;
58272;SDS011;44075;42.436;18.514;2022-08-16T07:48:25;12.65;;;7.20;;
58272;SDS011;44075;42.436;18.514;2022-08-16T07:50:51;12.10;;;6.95;;
58272;SDS011;44075;42.436;18.514;2022-08-16T07:53:17;12.82;;;7.63;;
58272;SDS011;44075;42.436;18.514;2022-08-16T07:55:43;11.23;;;6.32;;
58272;SDS011;44075;42.436;18.514;2022-08-16T07:58:10;11.88;;;6.70;;
58272;SDS011;44075;42.436;18.514;2022-08-16T08:00:36;10.88;;;7.32;;
58272;SDS011;44075;42.436;18.514;2022-08-16T08:03:03;15.10;;;7.97;;
58272;SDS011;44075;42.436;18.514;2022-08-16T08:05:29;14.85;;;9.70;;
58272;SDS011;44075;42.436;18.514;2022-08-16T08:07:55;14.32;;;9.30;;
58272;SDS011;44075;42.436;18.514;2022-08-16T08:10:22;10.75;;;6.55;;
58272;SDS011;44075;42.436;18.514;2022-08-16T08:12:48;8.82;;;6.57;;
58272;SDS011;44075;42.436;18.514;2022-08-16T08:15:15;9.60;;;5.68;;
58272;SDS011;44075;42.436;18.514;2022-08-16T08:17:45;9.98;;;6.18;;
58272;SDS011;44075;42.436;18.514;2022-08-16T08:20:14;8.70;;;5.93;;
58272;SDS011;44075;42.436;18.514;2022-08-16T08:22:41;10.88;;;6.85;;
58272;SDS011;44075;42.436;18.514;2022-08-16T08:25:11;9.38;;;5.15;;
58272;SDS011;44075;42.436;18.514;2022-08-16T08:27:47;9.73;;;6.15;;
58272;SDS011;44075;42.436;18.514;2022-08-16T08:30:14;9.52;;;5.78;;
58272;SDS011;44075;42.436;18.514;2022-08-16T08:32:40;10.38;;;5.68;;
58272;SDS011;44075;42.436;18.514;2022-08-16T08:35:07;10.02;;;5.88;;
58272;SDS011;44075;42.436;18.514;2022-08-16T08:37:34;9.00;;;5.22;;
58272;SDS011;44075;42.436;18.514;2022-08-16T08:40:01;9.15;;;6.03;;
58272;SDS011;44075;42.436;18.514;2022-08-16T08:42:27;11.77;;;6.95;;
58272;SDS011;44075;42.436;18.514;2022-08-16T08:44:53;11.88;;;6.70;;
58272;SDS011;44075;42.436;18.514;2022-08-16T08:47:19;13.30;;;6.30;;
58272;SDS011;44075;42.436;18.514;2022-08-16T08:49:45;9.65;;;5.80;;
58272;SDS011;44075;42.436;18.514;2022-08-16T08:52:11;10.55;;;6.93;;
58272;SDS011;44075;42.436;18.514;2022-08-16T08:54:37;9.38;;;6.57;;
58272;SDS011;44075;42.436;18.514;2022-08-16T08:57:07;9.48;;;6.68;;
58272;SDS011;44075;42.436;18.514;2022-08-16T08:59:35;13.20;;;7.00;;
58272;SDS011;44075;42.436;18.514;2022-08-16T09:02:01;8.50;;;5.45;;
58272;SDS011;44075;42.436;18.514;2022-08-16T09:04:27;9.15;;;5.28;;
58272;SDS011;44075;42.436;18.514;2022-08-16T09:06:54;8.30;;;5.72;;
58272;SDS011;44075;42.436;18.514;2022-08-16T09:09:21;9.95;;;6.13;;
58272;SDS011;44075;42.436;18.514;2022-08-16T09:11:47;7.75;;;4.32;;
58272;SDS011;44075;42.436;18.514;2022-08-16T09:14:19;8.63;;;4.30;;
58272;SDS011;44075;42.436;18.514;2022-08-16T09:16:45;7.85;;;4.50;;
58272;SDS011;44075;42.436;18.514;2022-08-16T09:19:12;8.52;;;5.55;;
58272;SDS011;44075;42.436;18.514;2022-08-16T09:21:39;9.43;;;6.47;;
58272;SDS011;44075;42.436;18.514;2022-08-16T09:24:06;8.35;;;5.53;;
58272;SDS011;44075;42.436;18.514;2022-08-16T09:26:33;12.15;;;6.47;;
58272;SDS011;44075;42.436;18.514;2022-08-16T09:28:59;11.55;;;6.97;;
58272;SDS011;44075;42.436;18.514;2022-08-16T09:31:25;11.07;;;6.55;;
58272;SDS011;44075;42.436;18.514;2022-08-16T09:33:51;10.32;;;6.70;;
58272;SDS011;44075;42.436;18.514;2022-08-16T09:36:18;8.88;;;5.32;;
58272;SDS011;44075;42.436;18.514;2022-08-16T09:38:48;10.60;;;5.85;;
58272;SDS011;44075;42.436;18.514;2022-08-16T09:41:15;11.82;;;6.18;;
58272;SDS011;44075;42.436;18.514;2022-08-16T09:43:41;9.27;;;6.15;;
58272;SDS011;44075;42.436;18.514;2022-08-16T09:46:08;9.68;;;5.57;;
58272;SDS011;44075;42.436;18.514;2022-08-16T09:48:34;10.32;;;6.60;;
58272;SDS011;44075;42.436;18.514;2022-08-16T09:51:06;11.38;;;5.70;;
58272;SDS011;44075;42.436;18.514;2022-08-16T09:53:34;8.48;;;5.38;;
58272;SDS011;44075;42.436;18.514;2022-08-16T09:56:01;9.50;;;7.07;;
58272;SDS011;44075;42.436;18.514;2022-08-16T09:58:28;9.55;;;6.35;;
58272;SDS011;44075;42.436;18.514;2022-08-16T10:00:54;9.75;;;6.45;;
58272;SDS011;44075;42.436;18.514;2022-08-16T10:03:21;10.07;;;6.50;;
58272;SDS011;44075;42.436;18.514;2022-08-16T10:05:47;11.18;;;6.30;;
58272;SDS011;44075;42.436;18.514;2022-08-16T10:08:16;8.98;;;6.00;;
58272;SDS011;44075;42.436;18.514;2022-08-16T10:10:44;9.02;;;6.38;;
58272;SDS011;44075;42.436;18.514;2022-08-16T10:13:30;9.35;;;6.20;;
58272;SDS011;44075;42.436;18.514;2022-08-16T10:15:58;11.15;;;6.68;;
58272;SDS011;44075;42.436;18.514;2022-08-16T10:18:25;11.43;;;5.53;;
58272;SDS011;44075;42.436;18.514;2022-08-16T10:20:52;9.57;;;6.03;;
58272;SDS011;44075;42.436;18.514;2022-08-16T10:23:20;12.25;;;8.77;;
58272;SDS011;44075;42.436;18.514;2022-08-16T10:25:46;12.00;;;7.63;;
58272;SDS011;44075;42.436;18.514;2022-08-16T10:28:13;13.98;;;7.00;;
58272;SDS011;44075;42.436;18.514;2022-08-16T10:30:40;9.38;;;6.15;;
58272;SDS011;44075;42.436;18.514;2022-08-16T10:33:07;9.65;;;5.72;;
58272;SDS011;44075;42.436;18.514;2022-08-16T10:35:33;11.38;;;5.50;;
58272;SDS011;44075;42.436;18.514;2022-08-16T10:38:02;8.93;;;6.22;;
58272;SDS011;44075;42.436;18.514;2022-08-16T10:40:28;8.52;;;5.20;;
58272;SDS011;44075;42.436;18.514;2022-08-16T10:42:55;9.25;;;5.47;;
58272;SDS011;44075;42.436;18.514;2022-08-16T10:45:23;9.73;;;5.80;;
58272;SDS011;44075;42.436;18.514;2022-08-16T10:47:49;9.40;;;5.80;;
58272;SDS011;44075;42.436;18.514;2022-08-16T10:50:15;9.88;;;6.03;;
58272;SDS011;44075;42.436;18.514;2022-08-16T10:52:42;10.00;;;6.25;;
58272;SDS011;44075;42.436;18.514;2022-08-16T10:55:08;13.25;;;7.00;;
58272;SDS011;44075;42.436;18.514;2022-08-16T10:57:37;12.00;;;6.68;;
58272;SDS011;44075;42.436;18.514;2022-08-16T11:00:07;12.75;;;7.10;;
58272;SDS011;44075;42.436;18.514;2022-08-16T11:02:36;9.68;;;5.35;;
58272;SDS011;44075;42.436;18.514;2022-08-16T11:05:03;8.10;;;5.25;;
58272;SDS011;44075;42.436;18.514;2022-08-16T11:07:29;8.77;;;5.82;;
58272;SDS011;44075;42.436;18.514;2022-08-16T11:09:56;8.98;;;5.40;;
58272;SDS011;44075;42.436;18.514;2022-08-16T11:12:26;7.70;;;4.80;;
58272;SDS011;44075;42.436;18.514;2022-08-16T11:14:52;8.85;;;4.80;;
58272;SDS011;44075;42.436;18.514;2022-08-16T11:17:18;7.88;;;5.18;;
58272;SDS011;44075;42.436;18.514;2022-08-16T11:19:44;8.68;;;4.68;;
58272;SDS011;44075;42.436;18.514;2022-08-16T11:22:10;8.48;;;5.28;;
58272;SDS011;44075;42.436;18.514;2022-08-16T11:24:36;8.82;;;5.43;;
58272;SDS011;44075;42.436;18.514;2022-08-16T11:27:05;7.65;;;4.97;;
58272;SDS011;44075;42.436;18.514;2022-08-16T11:29:32;7.28;;;4.45;;
58272;SDS011;44075;42.436;18.514;2022-08-16T11:32:01;7.68;;;4.45;;
58272;SDS011;44075;42.436;18.514;2022-08-16T11:34:35;7.30;;;4.05;;
58272;SDS011;44075;42.436;18.514;2022-08-16T11:37:02;9.93;;;4.88;;
58272;SDS011;44075;42.436;18.514;2022-08-16T11:39:28;7.70;;;4.68;;
58272;SDS011;44075;42.436;18.514;2022-08-16T11:41:57;7.40;;;4.60;;
58272;SDS011;44075;42.436;18.514;2022-08-16T11:44:24;7.00;;;4.55;;
58272;SDS011;44075;42.436;18.514;2022-08-16T11:46:53;7.70;;;4.50;;
58272;SDS011;44075;42.436;18.514;2022-08-16T11:49:22;8.15;;;4.65;;
58272;SDS011;44075;42.436;18.514;2022-08-16T11:51:48;8.63;;;4.57;;
58272;SDS011;44075;42.436;18.514;2022-08-16T11:54:15;9.40;;;4.60;;
58272;SDS011;44075;42.436;18.514;2022-08-16T11:56:42;8.13;;;5.00;;
58272;SDS011;44075;42.436;18.514;2022-08-16T11:59:08;9.65;;;4.88;;
58272;SDS011;44075;42.436;18.514;2022-08-16T12:01:40;7.80;;;4.55;;
58272;SDS011;44075;42.436;18.514;2022-08-16T12:04:13;10.20;;;5.10;;
58272;SDS011;44075;42.436;18.514;2022-08-16T12:06:39;8.32;;;4.50;;
58272;SDS011;44075;42.436;18.514;2022-08-16T12:09:09;7.60;;;4.38;;
58272;SDS011;44075;42.436;18.514;2022-08-16T12:11:35;11.02;;;5.18;;
58272;SDS011;44075;42.436;18.514;2022-08-16T12:14:02;9.65;;;5.03;;
58272;SDS011;44075;42.436;18.514;2022-08-16T12:16:29;8.90;;;4.20;;
58272;SDS011;44075;42.436;18.514;2022-08-16T12:18:55;9.50;;;4.85;;
58272;SDS011;44075;42.436;18.514;2022-08-16T12:21:22;8.13;;;4.75;;
58272;SDS011;44075;42.436;18.514;2022-08-16T12:23:50;9.73;;;4.90;;
58272;SDS011;44075;42.436;18.514;2022-08-16T12:26:26;7.45;;;4.53;;
58272;SDS011;44075;42.436;18.514;2022-08-16T12:28:52;7.53;;;5.10;;
58272;SDS011;44075;42.436;18.514;2022-08-16T12:31:21;7.07;;;4.32;;
58272;SDS011;44075;42.436;18.514;2022-08-16T12:33:47;7.53;;;4.13;;
58272;SDS011;44075;42.436;18.514;2022-08-16T12:36:13;8.15;;;4.20;;
58272;SDS011;44075;42.436;18.514;2022-08-16T12:38:41;9.90;;;5.63;;
58272;SDS011;44075;42.436;18.514;2022-08-16T12:41:08;8.18;;;4.00;;
58272;SDS011;44075;42.436;18.514;2022-08-16T12:43:34;7.18;;;4.10;;
58272;SDS011;44075;42.436;18.514;2022-08-16T12:46:00;6.70;;;4.20;;
58272;SDS011;44075;42.436;18.514;2022-08-16T12:48:31;8.63;;;4.15;;
58272;SDS011;44075;42.436;18.514;2022-08-16T12:51:17;10.23;;;6.05;;
58272;SDS011;44075;42.436;18.514;2022-08-16T12:53:49;7.88;;;4.60;;
58272;SDS011;44075;42.436;18.514;2022-08-16T12:56:18;8.35;;;5.22;;
58272;SDS011;44075;42.436;18.514;2022-08-16T12:58:45;8.32;;;4.60;;
58272;SDS011;44075;42.436;18.514;2022-08-16T13:01:25;7.60;;;4.55;;
58272;SDS011;44075;42.436;18.514;2022-08-16T13:03:55;6.43;;;3.70;;
58272;SDS011;44075;42.436;18.514;2022-08-16T13:06:22;8.05;;;5.07;;
58272;SDS011;44075;42.436;18.514;2022-08-16T13:08:58;7.63;;;4.00;;
58272;SDS011;44075;42.436;18.514;2022-08-16T13:11:39;7.75;;;4.47;;
58272;SDS011;44075;42.436;18.514;2022-08-16T13:14:10;8.15;;;4.82;;
58272;SDS011;44075;42.436;18.514;2022-08-16T13:16:36;7.82;;;4.40;;
58272;SDS011;44075;42.436;18.514;2022-08-16T13:19:06;8.20;;;4.45;;
58272;SDS011;44075;42.436;18.514;2022-08-16T13:21:32;6.80;;;3.83;;
58272;SDS011;44075;42.436;18.514;2022-08-16T13:23:58;8.20;;;4.40;;
58272;SDS011;44075;42.436;18.514;2022-08-16T13:26:24;6.75;;;4.63;;
58272;SDS011;44075;42.436;18.514;2022-08-16T13:28:50;7.53;;;4.30;;
58272;SDS011;44075;42.436;18.514;2022-08-16T13:31:20;6.35;;;3.88;;
58272;SDS011;44075;42.436;18.514;2022-08-16T13:33:47;9.18;;;4.40;;
58272;SDS011;44075;42.436;18.514;2022-08-16T13:36:13;6.72;;;4.38;;
58272;SDS011;44075;42.436;18.514;2022-08-16T13:38:39;6.95;;;4.00;;
58272;SDS011;44075;42.436;18.514;2022-08-16T13:41:06;7.68;;;4.30;;
58272;SDS011;44075;42.436;18.514;2022-08-16T13:43:33;6.70;;;4.30;;
58272;SDS011;44075;42.436;18.514;2022-08-16T13:46:04;7.20;;;4.18;;
58272;SDS011;44075;42.436;18.514;2022-08-16T13:48:33;6.85;;;4.50;;
58272;SDS011;44075;42.436;18.514;2022-08-16T13:50:59;8.13;;;4.82;;
58272;SDS011;44075;42.436;18.514;2022-08-16T13:53:27;7.13;;;4.55;;
58272;SDS011;44075;42.436;18.514;2022-08-16T13:55:56;7.32;;;4.70;;
58272;SDS011;44075;42.436;18.514;2022-08-16T13:58:22;7.47;;;4.70;;
58272;SDS011;44075;42.436;18.514;2022-08-16T14:00:48;7.47;;;4.63;;
58272;SDS011;44075;42.436;18.514;2022-08-16T14:03:14;7.05;;;4.68;;
58272;SDS011;44075;42.436;18.514;2022-08-16T14:05:45;7.88;;;5.10;;
58272;SDS011;44075;42.436;18.514;2022-08-16T14:08:11;7.32;;;5.10;;
58272;SDS011;44075;42.436;18.514;2022-08-16T14:10:37;6.68;;;4.45;;
58272;SDS011;44075;42.436;18.514;2022-08-16T14:13:03;8.27;;;4.55;;
58272;SDS011;44075;42.436;18.514;2022-08-16T14:15:30;7.18;;;4.90;;
58272;SDS011;44075;42.436;18.514;2022-08-16T14:18:00;6.90;;;5.03;;
58272;SDS011;44075;42.436;18.514;2022-08-16T14:20:32;7.13;;;3.85;;
58272;SDS011;44075;42.436;18.514;2022-08-16T14:23:01;6.82;;;4.32;;
58272;SDS011;44075;42.436;18.514;2022-08-16T14:25:29;7.03;;;4.40;;
58272;SDS011;44075;42.436;18.514;2022-08-16T14:27:55;6.82;;;4.45;;
58272;SDS011;44075;42.436;18.514;2022-08-16T14:30:21;6.43;;;4.20;;
58272;SDS011;44075;42.436;18.514;2022-08-16T14:32:48;6.70;;;4.47;;
58272;SDS011;44075;42.436;18.514;2022-08-16T14:35:17;6.78;;;4.50;;
58272;SDS011;44075;42.436;18.514;2022-08-16T14:37:45;6.40;;;4.82;;
58272;SDS011;44075;42.436;18.514;2022-08-16T14:40:12;7.68;;;5.00;;
58272;SDS011;44075;42.436;18.514;2022-08-16T14:42:39;7.00;;;4.63;;
58272;SDS011;44075;42.436;18.514;2022-08-16T14:45:09;6.47;;;4.18;;